Accueil
METAR-TAF:

METAR-TAF

Aéroports :

Marine Corps Air Station Miramar

San Diego / Miramar, Californie, États-Unis

latitude: 32-52-06N, longitude: 117-08-33W, altitude: 146 m

Observation

Le bulletin a été fait il y a 50 minutes, à 00:55 UTC
Vent 7 kt de nord-ouest
Température 17°C
Humidité 68%
Pression 1021 hPa
Visibilité: 16.1 km
Ciel clair

METAR: KNKX 280055Z 32007KT 10SM CLR 17/11 A3016 RMK AO2 SLP210 T01670111

Heure: 17:45 (01:45 UTC)

Prévision

Prévision valable du 27 à 21 UTC au 28 à 21 UTC
Vent 5 kt de direction variable
Visibilité 10 km ou plus
Quelques nuages à une hauteur de 2000 ft
Temporairement
du 27 à 21 UTC au 28 à 03 UTC
Vent 7 kt de nord-ouest
Visibilité inférieure à 50 m

TAF: KNKX 2721/2821 VRB05KT 9999 FEW020 QNH3012INS TEMPO 2721/2803 31007KT T20/2722Z T09/2812Z COR 0000

Observations et prévisions météorologiques de plus de 4000 aéroports (messages METAR et TAF).

Les stations disponibles sont représentées par des disques jaunes et rouges sur la carte.

Passer la souris dessus pour voir le nom de la station.

Cliquer dessus pour voir les observations et prévisions météorologiques.

Pour changer de carte: cliquez sur les boutons verts avec une croix noire pour zoomer, sur le bouton vert avec un tiret pour effectuer un zoom arrière, ou sur les flèches vertes pour les cartes adjacentes.


METAR-TAF: